Startpagina
METAR-TAF:

METAR-TAF

Vliegvelden :

Nadi International Airport

Nadi, Fiji

breedte: 17-45S, lengte: 177-27E, hoogte: 13 m

Actueel weer

Dit bericht is 43 minuten geleden gemaakt, om 14:00 UTC
Wind 5 kt uit het oostnoordoosten
Temperatuur 19°C
Vochtigheid 78%
Druk 1014 hPa
Zicht 10 km of meer
Weinig wolken op 3000 ft
Verspreide wolken op 5000 ft

METAR: NFFN 151400Z 06005KT 9999 FEW030 SCT050 19/15 Q1014 NOSIG

Tijdstip: 02:43 (14:43 UTC)

Verwachting

Dit bericht is 3 uur en het 40 minuten geleden gemaakt, om 11:03 UTC
Verwachting geldig van 15 om 12 UTC tot 16 om 12 UTC
Wind 8 kt uit het oostzuidoosten
Zicht 10 km of meer
Weinig wolken op 3000 ft

TAF: NFFN 151103Z 1512/1612 12008KT 9999 FEW030

Waarnemingen en weersverwachtingen van meer dan 4000 vliegvelden (METAR en TAF).

De beschikbare stations zijn de gele en rode punten op de kaart.

Ga met uw muis naar het station om de naam te zien.

Klik dan om waarnemingen en weersverwachtingen te zien.

kaart wijzigen: klik op de groene knoppen met een zwart kruis om in te zoomen, op de groene knop met een streepje om uit te zoomen of op de groene pijlen voor aangrenzende kaarten.


METAR-TAF: